Time;durP1;ratioP1;P1;durP2;ratioP2;P2;SDS_P1;SDS_P2;PMS_P1;PMS_P2;Temp;Humidity;BMP_temperature;BMP_pressure;BME280_temperature;BME280_humidity;BME280_pressure;Samples;Min_cycle;Max_cycle;Signal;HPM_P1;HPM_P2
2023/03/25 00:01:32;;;;;;;22.58;11.73;;;;;;;11.75;62.43;99633.66;5074433;28;20037;-64
2023/03/25 00:04:02;;;;;;;18.02;10.32;;;;;;;11.83;62.47;99630.19;5074773;28;20028;-68
2023/03/25 00:06:29;;;;;;;17.08;10.00;;;;;;;11.66;61.82;99624.09;5075897;28;20046;-68
2023/03/25 00:08:55;;;;;;;32.15;14.20;;;;;;;11.62;62.65;99633.38;5074025;28;20036;-65
2023/03/25 00:11:20;;;;;;;17.52;10.85;;;;;;;11.63;62.63;99624.44;5075334;28;20203;-64
2023/03/25 00:13:47;;;;;;;18.42;11.20;;;;;;;11.61;62.45;99626.44;5074210;28;20051;-64
2023/03/25 00:16:13;;;;;;;18.10;10.25;;;;;;;11.61;62.80;99623.78;5073944;28;20352;-68
2023/03/25 00:18:39;;;;;;;15.68;10.07;;;;;;;11.58;62.85;99625.94;5075231;28;20383;-68
2023/03/25 00:21:09;;;;;;;13.45;9.48;;;;;;;11.30;63.43;99623.69;5074765;28;20318;-68
2023/03/25 00:23:35;;;;;;;16.05;10.35;;;;;;;11.29;63.53;99615.91;5075481;28;20047;-64
2023/03/25 00:26:01;;;;;;;15.27;10.30;;;;;;;11.39;63.36;99613.88;5074152;28;20045;-64
2023/03/25 00:28:32;;;;;;;16.60;10.55;;;;;;;11.51;63.68;99620.50;5073896;28;20040;-68
2023/03/25 00:31:10;;;;;;;20.77;10.48;;;;;;;11.43;63.08;99612.53;5074602;28;20230;-68
2023/03/25 00:33:36;;;;;;;18.88;10.13;;;;;;;11.40;63.53;99616.34;5074191;28;20311;-64
2023/03/25 00:36:03;;;;;;;16.95;10.02;;;;;;;11.46;62.65;99618.34;5074048;28;20034;-65
2023/03/25 00:38:34;;;;;;;17.17;10.65;;;;;;;11.43;63.46;99615.19;5076713;28;20234;-65
2023/03/25 00:41:21;;;;;;;18.60;10.43;;;;;;;11.38;63.43;99605.09;5074232;28;20032;-68
2023/03/25 00:43:48;;;;;;;15.73;10.15;;;;;;;11.50;62.90;99605.59;5074510;28;20036;-68
2023/03/25 00:46:15;;;;;;;19.77;10.27;;;;;;;11.52;62.77;99601.75;5075408;28;20246;-64
2023/03/25 00:48:42;;;;;;;17.65;11.18;;;;;;;11.54;62.12;99600.78;5077060;28;20330;-68
2023/03/25 00:51:08;;;;;;;19.73;11.43;;;;;;;11.50;62.24;99595.81;5077325;28;20036;-63
2023/03/25 00:53:36;;;;;;;16.67;10.48;;;;;;;11.62;61.83;99606.88;5077013;28;20031;-68
2023/03/25 00:56:02;;;;;;;16.20;9.68;;;;;;;11.48;61.82;99604.94;5077214;28;20058;-63
2023/03/25 00:58:28;;;;;;;15.85;9.93;;;;;;;11.43;62.13;99596.63;5077296;28;20029;-68
2023/03/25 01:00:55;;;;;;;17.92;10.85;;;;;;;11.35;62.62;99591.34;5077940;28;20051;-68
2023/03/25 01:03:22;;;;;;;16.27;9.07;;;;;;;11.23;62.62;99598.03;5077293;28;20090;-68
2023/03/25 01:05:49;;;;;;;15.05;9.05;;;;;;;11.19;62.59;99592.22;5077814;28;20032;-68
2023/03/25 01:08:16;;;;;;;18.33;10.00;;;;;;;11.32;62.06;99584.56;5076517;28;20033;-64
2023/03/25 01:10:42;;;;;;;14.27;9.48;;;;;;;11.40;62.23;99589.84;5077172;28;20302;-69
2023/03/25 01:13:07;;;;;;;17.83;10.13;;;;;;;11.26;63.17;99587.06;5076166;28;20325;-64
2023/03/25 01:15:33;;;;;;;17.25;9.95;;;;;;;11.30;63.18;99583.09;5077426;28;20095;-65
2023/03/25 01:17:58;;;;;;;15.15;9.45;;;;;;;11.36;61.97;99583.25;5077599;28;20035;-64
2023/03/25 01:20:25;;;;;;;15.85;9.73;;;;;;;11.38;61.62;99575.13;5077435;28;20044;-68
2023/03/25 01:22:51;;;;;;;15.43;9.85;;;;;;;11.28;61.71;99582.44;5076830;28;20440;-68
2023/03/25 01:25:17;;;;;;;16.25;9.50;;;;;;;11.34;61.83;99587.88;5078272;28;20033;-63
2023/03/25 01:27:42;;;;;;;15.43;9.30;;;;;;;11.25;62.77;99578.31;5076903;28;20041;-67
2023/03/25 01:30:08;;;;;;;13.57;9.18;;;;;;;11.26;62.04;99569.34;5076164;28;20055;-68
2023/03/25 01:32:33;;;;;;;15.88;9.75;;;;;;;11.36;61.80;99563.84;5076969;28;20249;-64
2023/03/25 01:34:59;;;;;;;16.88;9.32;;;;;;;11.22;62.13;99567.22;5075559;28;20043;-68
2023/03/25 01:37:26;;;;;;;15.80;9.50;;;;;;;11.24;61.43;99565.22;5077189;28;20035;-68
2023/03/25 01:39:51;;;;;;;17.75;9.25;;;;;;;11.35;60.90;99563.03;5077225;28;20300;-68
2023/03/25 01:42:17;;;;;;;15.77;9.23;;;;;;;11.22;61.87;99560.09;5076026;28;20129;-64
2023/03/25 01:44:42;;;;;;;16.63;10.48;;;;;;;11.35;61.89;99559.53;5077448;28;20036;-68
2023/03/25 01:47:08;;;;;;;20.80;10.13;;;;;;;11.42;61.45;99555.22;5075138;28;20223;-63
2023/03/25 01:49:37;;;;;;;15.25;9.57;;;;;;;11.47;61.31;99552.91;5076963;28;20052;-64
2023/03/25 01:52:24;;;;;;;18.27;10.32;;;;;;;11.45;61.42;99550.44;5076421;28;20029;-68
2023/03/25 01:54:53;;;;;;;19.30;10.73;;;;;;;11.41;62.25;99553.56;5075829;28;20039;-68
2023/03/25 01:57:22;;;;;;;17.02;11.23;;;;;;;11.37;63.03;99554.91;5075794;28;20035;-64
2023/03/25 01:59:49;;;;;;;19.52;12.73;;;;;;;11.36;62.52;99546.13;5078409;28;20043;-65
2023/03/25 02:02:17;;;;;;;18.65;12.90;;;;;;;11.32;63.75;99551.94;5076586;28;20063;-64
2023/03/25 02:05:01;;;;;;;18.90;13.32;;;;;;;11.40;63.31;99543.94;5076231;28;20052;-64
2023/03/25 02:07:29;;;;;;;20.75;12.75;;;;;;;11.41;63.63;99538.47;5076500;28;20340;-68
2023/03/25 02:10:01;;;;;;;21.00;12.80;;;;;;;11.35;63.78;99527.75;5076051;28;20543;-68
2023/03/25 02:12:27;;;;;;;18.27;12.07;;;;;;;11.40;63.09;99525.41;5075287;28;20033;-68
2023/03/25 02:14:53;;;;;;;20.02;13.25;;;;;;;11.09;63.33;99538.59;5076788;28;20210;-64
2023/03/25 02:17:48;;;;;;;21.58;12.38;;;;;;;11.04;64.54;99535.63;5075981;28;20323;-68
2023/03/25 02:20:48;;;;;;;21.00;14.23;;;;;;;10.82;65.17;99531.88;5075627;28;20048;-63
2023/03/25 02:23:31;;;;;;;20.08;13.18;;;;;;;10.67;66.36;99536.22;5075101;28;20239;-64
2023/03/25 02:25:59;;;;;;;22.35;14.23;;;;;;;10.53;67.13;99521.81;5074153;28;20081;-64
2023/03/25 02:28:38;;;;;;;20.40;13.25;;;;;;;10.47;68.10;99530.44;5075137;28;20063;-68
2023/03/25 02:31:28;;;;;;;21.08;13.23;;;;;;;10.76;67.00;99530.72;5076739;28;20229;-64
2023/03/25 02:34:14;;;;;;;23.80;13.85;;;;;;;10.74;65.93;99526.59;5074732;28;20044;-64
2023/03/25 02:36:47;;;;;;;24.88;14.55;;;;;;;10.80;66.79;99515.31;5076460;28;20024;-68
2023/03/25 02:39:23;;;;;;;22.75;14.15;;;;;;;10.91;65.56;99516.78;5076261;28;20127;-64
2023/03/25 02:42:03;;;;;;;20.65;13.63;;;;;;;11.02;65.30;99517.25;5074787;28;20372;-63
2023/03/25 02:45:07;;;;;;;21.00;13.15;;;;;;;11.12;64.68;99519.72;5073953;28;20049;-68
2023/03/25 02:47:36;;;;;;;20.08;13.30;;;;;;;11.09;64.58;99520.06;5074065;28;20060;-64
2023/03/25 02:50:10;;;;;;;21.08;13.70;;;;;;;11.12;64.40;99528.47;5075450;28;20044;-68
2023/03/25 02:52:54;;;;;;;22.75;14.32;;;;;;;11.02;64.78;99516.44;5073454;28;20036;-64
2023/03/25 02:55:21;;;;;;;;;;;;;;;10.94;64.59;99514.63;5075267;28;20040;-68
2023/03/25 02:57:51;;;;;;;56.92;27.40;;;;;;;10.88;65.01;99508.19;5075728;28;19920;-68
2023/03/25 03:00:21;;;;;;;67.13;29.45;;;;;;;10.84;64.24;99512.19;5075592;28;20029;-64
2023/03/25 03:02:58;;;;;;;24.08;13.75;;;;;;;10.82;64.40;99511.53;5076489;28;20024;-68
2023/03/25 03:05:30;;;;;;;20.25;12.73;;;;;;;10.81;64.87;99503.75;5076532;28;20044;-68
2023/03/25 03:08:04;;;;;;;29.48;14.35;;;;;;;10.91;64.44;99498.25;5074508;28;20028;-68
2023/03/25 03:10:41;;;;;;;20.35;12.82;;;;;;;10.93;63.53;99490.97;5073802;28;20048;-68
2023/03/25 03:13:29;;;;;;;19.88;11.98;;;;;;;10.85;62.75;99491.81;5073492;28;20073;-64
2023/03/25 03:16:23;;;;;;;19.02;12.25;;;;;;;10.82;61.55;99500.09;5073100;28;20174;-64
2023/03/25 03:19:22;;;;;;;18.37;11.37;;;;;;;10.71;60.41;99490.69;5074113;28;20041;-64
2023/03/25 03:22:02;;;;;;;17.52;10.73;;;;;;;10.69;60.19;99491.84;5075121;28;20338;-68
2023/03/25 03:24:35;;;;;;;21.90;12.05;;;;;;;10.63;60.61;99490.69;5074240;28;20068;-64
2023/03/25 03:27:13;;;;;;;18.67;10.85;;;;;;;10.63;61.55;99495.19;5074339;28;20041;-69
2023/03/25 03:29:47;;;;;;;17.83;11.75;;;;;;;10.65;62.34;99499.31;5074836;28;20222;-64
2023/03/25 03:32:31;;;;;;;19.25;11.35;;;;;;;10.66;62.02;99494.84;5076281;28;20068;-68
2023/03/25 03:35:08;;;;;;;21.10;12.73;;;;;;;10.67;62.78;99489.38;5076186;28;20047;-68
2023/03/25 03:37:42;;;;;;;22.00;12.95;;;;;;;10.59;62.88;99483.25;5074848;28;20064;-68
2023/03/25 03:40:18;;;;;;;21.48;12.45;;;;;;;10.50;64.36;99483.28;5075487;28;20048;-65
2023/03/25 03:42:51;;;;;;;21.73;12.90;;;;;;;10.57;64.39;99478.13;5074364;28;20035;-64
2023/03/25 03:45:23;;;;;;;19.02;11.68;;;;;;;10.62;63.46;99483.75;5076444;28;20074;-65
2023/03/25 03:47:54;;;;;;;19.40;11.90;;;;;;;10.24;63.84;99482.63;5075871;28;20231;-64
2023/03/25 03:50:26;;;;;;;19.70;11.50;;;;;;;10.21;64.78;99483.78;5074014;28;20033;-68
2023/03/25 03:53:02;;;;;;;20.05;12.63;;;;;;;10.03;65.42;99490.19;5074033;28;20451;-68
2023/03/25 03:55:40;;;;;;;21.33;11.93;;;;;;;10.00;64.68;99494.00;5074922;28;20676;-64
2023/03/25 03:58:33;;;;;;;15.38;11.35;;;;;;;10.21;63.47;99488.25;5074340;28;20032;-68
2023/03/25 04:01:33;;;;;;;17.75;11.68;;;;;;;10.33;63.50;99488.72;5067737;28;20587;-63
2023/03/25 04:04:03;;;;;;;18.45;12.02;;;;;;;10.33;62.74;99480.78;5072484;28;20064;-68
2023/03/25 04:06:40;;;;;;;18.42;11.32;;;;;;;9.87;63.18;99480.44;5075168;28;20215;-68
2023/03/25 04:09:27;;;;;;;15.73;11.73;;;;;;;10.00;63.21;99480.75;5074799;28;20227;-68
2023/03/25 04:12:01;;;;;;;14.50;10.45;;;;;;;10.03;62.10;99485.72;5074045;28;20518;-64
2023/03/25 04:14:26;;;;;;;16.67;10.25;;;;;;;10.06;61.44;99488.03;5074080;28;20052;-64
2023/03/25 04:16:54;;;;;;;20.23;11.80;;;;;;;9.98;62.46;99484.56;5073484;28;20052;-69
2023/03/25 04:19:19;;;;;;;22.75;10.10;;;;;;;9.92;60.62;99486.06;5077602;28;20061;-68
2023/03/25 04:21:48;;;;;;;21.05;10.80;;;;;;;9.74;63.16;99486.19;5078458;28;20332;-64
2023/03/25 04:24:15;;;;;;;19.75;11.63;;;;;;;9.79;64.63;99486.53;5077799;28;20044;-68
2023/03/25 04:26:41;;;;;;;22.17;12.55;;;;;;;9.91;64.90;99485.22;5077106;28;20117;-64
2023/03/25 04:29:08;;;;;;;19.50;12.00;;;;;;;9.99;64.58;99491.50;5077869;28;20048;-68
2023/03/25 04:31:33;;;;;;;18.33;11.37;;;;;;;10.03;64.70;99496.31;5077050;28;20021;-64
2023/03/25 04:34:01;;;;;;;19.50;11.60;;;;;;;10.09;63.69;99506.22;5077187;28;20039;-63
2023/03/25 04:36:27;;;;;;;17.45;12.38;;;;;;;10.12;64.28;99502.44;5078837;28;20039;-64
2023/03/25 04:38:54;;;;;;;26.80;13.77;;;;;;;10.17;64.10;99506.22;5077054;28;20029;-68
2023/03/25 04:41:22;;;;;;;22.42;13.82;;;;;;;10.03;64.76;99509.53;5078411;28;20032;-68
2023/03/25 04:43:48;;;;;;;22.67;13.73;;;;;;;10.06;64.68;99501.28;5077021;28;20566;-68
2023/03/25 04:46:15;;;;;;;20.25;12.18;;;;;;;9.93;64.89;99507.03;5078134;28;20047;-68
2023/03/25 04:48:43;;;;;;;21.77;13.23;;;;;;;9.86;65.22;99500.75;5077054;28;20056;-68
2023/03/25 04:51:11;;;;;;;29.98;16.67;;;;;;;9.95;65.87;99503.41;5077905;28;20091;-63
2023/03/25 04:53:37;;;;;;;25.30;14.07;;;;;;;9.98;65.84;99511.84;5078877;28;20095;-67
2023/03/25 04:56:04;;;;;;;21.88;13.88;;;;;;;9.83;66.91;99505.53;5077192;28;20256;-68
2023/03/25 04:58:30;;;;;;;24.35;13.93;;;;;;;10.02;66.99;99512.34;5077755;28;20094;-64
2023/03/25 05:01:04;;;;;;;23.83;13.52;;;;;;;9.89;67.83;99511.00;5076665;28;20070;-68
2023/03/25 05:03:31;;;;;;;21.30;12.95;;;;;;;10.11;67.60;99514.81;5076072;28;20040;-68
2023/03/25 05:05:56;;;;;;;22.05;13.93;;;;;;;10.31;67.01;99511.88;5076438;28;20314;-68
2023/03/25 05:08:21;;;;;;;20.05;14.63;;;;;;;10.29;67.16;99503.28;5079426;28;20105;-68
2023/03/25 05:10:48;;;;;;;26.27;14.05;;;;;;;10.22;67.93;99501.31;5077348;28;20550;-68
2023/03/25 05:13:13;;;;;;;23.48;15.88;;;;;;;10.46;67.08;99500.50;5075950;28;20036;-63
2023/03/25 05:15:39;;;;;;;21.48;13.48;;;;;;;10.54;66.83;99497.00;5078398;28;20342;-67
2023/03/25 05:18:08;;;;;;;18.52;12.77;;;;;;;10.39;67.25;99502.13;5077052;28;20029;-65
2023/03/25 05:20:36;;;;;;;24.23;13.30;;;;;;;10.52;67.34;99501.66;5077137;28;20048;-68
2023/03/25 05:23:03;;;;;;;29.50;14.57;;;;;;;10.42;68.23;99498.34;5075860;28;20039;-68
2023/03/25 05:25:32;;;;;;;24.10;12.48;;;;;;;10.75;67.62;99496.47;5074836;28;20036;-68
2023/03/25 05:27:58;;;;;;;22.35;13.10;;;;;;;10.77;66.95;99497.97;5077383;28;20040;-68
2023/03/25 05:30:31;;;;;;;23.10;13.43;;;;;;;10.31;68.42;99503.94;5074954;28;20036;-64
2023/03/25 05:32:58;;;;;;;23.00;13.05;;;;;;;10.55;68.06;99496.00;5075467;28;20445;-68
2023/03/25 05:35:25;;;;;;;24.40;14.32;;;;;;;10.81;67.72;99495.78;5076485;28;20036;-63
2023/03/25 05:37:51;;;;;;;17.75;9.75;;;;;;;10.97;66.85;99503.69;5077022;28;20102;-68
2023/03/25 05:40:17;;;;;;;16.42;10.45;;;;;;;11.32;66.28;99504.22;5076778;28;20041;-65
2023/03/25 05:42:47;;;;;;;14.65;9.38;;;;;;;11.49;66.27;99495.22;5076232;28;20046;-68
2023/03/25 05:45:14;;;;;;;13.45;9.32;;;;;;;11.62;65.23;99492.00;5076354;28;20359;-64
2023/03/25 05:47:40;;;;;;;17.77;10.35;;;;;;;11.71;65.14;99488.31;5077458;28;20036;-63
2023/03/25 05:50:07;;;;;;;27.23;14.85;;;;;;;11.93;65.20;99494.66;5075681;28;20094;-64
2023/03/25 05:52:32;;;;;;;23.27;13.63;;;;;;;12.19;63.65;99495.13;5076631;28;20037;-64
2023/03/25 05:54:58;;;;;;;19.77;12.00;;;;;;;12.41;62.60;99494.25;5077803;28;20072;-68
2023/03/25 05:57:23;;;;;;;19.15;12.98;;;;;;;12.66;62.18;99497.53;5078151;28;20783;-68
2023/03/25 05:59:48;;;;;;;26.75;14.43;;;;;;;12.88;61.90;99493.16;5076652;28;20033;-65
2023/03/25 06:02:15;;;;;;;15.57;10.68;;;;;;;13.12;61.03;99494.72;5078065;28;20051;-65
2023/03/25 06:04:41;;;;;;;14.15;9.60;;;;;;;13.18;60.36;99494.00;5077661;28;20208;-67
2023/03/25 06:07:12;;;;;;;12.50;8.80;;;;;;;13.33;59.28;99492.16;5078422;28;20036;-64
2023/03/25 06:09:47;;;;;;;14.25;9.48;;;;;;;13.57;58.19;99495.53;5072482;28;20104;-65
2023/03/25 06:12:18;;;;;;;16.15;9.15;;;;;;;13.76;57.53;99497.59;5076539;28;20048;-68
2023/03/25 06:14:45;;;;;;;34.13;15.98;;;;;;;14.09;56.82;99502.41;5073818;28;20269;-68
2023/03/25 06:17:21;;;;;;;13.27;8.30;;;;;;;14.30;56.50;99500.56;5077165;28;20192;-68
2023/03/25 06:19:50;;;;;;;14.00;9.88;;;;;;;14.45;55.62;99494.34;5076498;28;20095;-68
2023/03/25 06:22:16;;;;;;;16.05;10.45;;;;;;;14.37;56.05;99505.94;5072241;28;20048;-68
2023/03/25 06:24:42;;;;;;;16.48;11.25;;;;;;;14.44;56.06;99495.38;5076011;28;20033;-64
2023/03/25 06:27:18;;;;;;;19.00;11.80;;;;;;;14.61;55.40;99491.44;5077163;28;20120;-64
2023/03/25 06:29:44;;;;;;;15.45;11.18;;;;;;;14.75;55.04;99490.50;5076978;28;20036;-64
2023/03/25 06:32:12;;;;;;;23.13;12.68;;;;;;;14.77;54.77;99500.97;5073320;28;20037;-68
2023/03/25 06:34:41;;;;;;;14.35;9.65;;;;;;;14.96;54.47;99490.44;5078338;28;20150;-68
2023/03/25 06:37:07;;;;;;;16.48;10.45;;;;;;;15.16;54.27;99484.38;5076883;28;20025;-65
2023/03/25 06:39:33;;;;;;;14.38;9.90;;;;;;;15.27;53.13;99486.47;5077999;28;20067;-64
2023/03/25 06:41:59;;;;;;;15.77;9.85;;;;;;;15.36;53.23;99481.81;5077937;28;20025;-66
2023/03/25 06:44:25;;;;;;;12.93;9.18;;;;;;;15.64;52.53;99485.25;5076159;28;20099;-68
2023/03/25 06:46:51;;;;;;;19.35;11.77;;;;;;;15.84;52.24;99486.13;5077569;28;20043;-65
2023/03/25 06:49:17;;;;;;;13.80;9.02;;;;;;;15.96;51.67;99486.34;5077713;28;20028;-65
2023/03/25 06:51:42;;;;;;;32.20;14.57;;;;;;;15.96;51.93;99478.34;5074924;28;20045;-65
2023/03/25 06:54:08;;;;;;;13.45;9.50;;;;;;;16.10;50.35;99485.34;5076354;28;20100;-64
2023/03/25 06:56:33;;;;;;;14.07;9.50;;;;;;;16.10;50.25;99488.00;5076783;28;20047;-65
2023/03/25 06:58:59;;;;;;;14.35;9.13;;;;;;;16.35;49.95;99485.56;5077051;28;20089;-68
2023/03/25 07:01:24;;;;;;;15.15;9.32;;;;;;;16.54;49.67;99482.06;5076380;28;20066;-68
2023/03/25 07:03:50;;;;;;;12.60;8.98;;;;;;;16.69;48.48;99486.41;5076350;28;20216;-65
2023/03/25 07:06:19;;;;;;;14.93;9.23;;;;;;;16.71;48.67;99471.81;5075890;28;20103;-69
2023/03/25 07:08:44;;;;;;;13.73;8.75;;;;;;;16.98;48.68;99474.44;5072005;28;20354;-65
2023/03/25 07:11:12;;;;;;;12.52;9.10;;;;;;;17.16;48.50;99474.56;5075335;28;20043;-69
2023/03/25 07:13:38;;;;;;;13.52;9.40;;;;;;;17.42;47.67;99487.84;5071947;28;20041;-64
2023/03/25 07:16:04;;;;;;;12.80;9.77;;;;;;;17.65;48.31;99481.16;5073917;28;20117;-69
2023/03/25 07:18:30;;;;;;;15.18;9.13;;;;;;;17.62;47.02;99485.09;5076293;28;20067;-65
2023/03/25 07:20:55;;;;;;;13.02;8.75;;;;;;;17.44;47.89;99476.94;5074248;28;20036;-68
2023/03/25 07:23:20;;;;;;;12.27;9.55;;;;;;;17.62;47.35;99469.03;5077438;28;20377;-68
2023/03/25 07:25:46;;;;;;;13.07;9.07;;;;;;;17.77;47.10;99476.81;5076166;28;20056;-65
2023/03/25 07:28:11;;;;;;;14.20;9.02;;;;;;;17.97;46.66;99474.03;5077277;28;20088;-64
2023/03/25 07:30:37;;;;;;;12.00;8.15;;;;;;;18.08;46.52;99466.13;5076576;28;20364;-64
2023/03/25 07:33:02;;;;;;;13.70;9.45;;;;;;;18.35;46.47;99476.63;5078477;28;20631;-65
2023/03/25 07:35:28;;;;;;;10.65;9.07;;;;;;;18.51;45.31;99468.84;5077415;28;20071;-65
2023/03/25 07:37:53;;;;;;;15.82;10.32;;;;;;;18.60;45.12;99477.44;5075963;28;20034;-68
2023/03/25 07:40:19;;;;;;;17.10;10.13;;;;;;;18.65;45.99;99472.25;5075237;28;20036;-64
2023/03/25 07:42:44;;;;;;;12.60;9.25;;;;;;;18.70;44.02;99466.22;5075322;28;20052;-68
2023/03/25 07:45:10;;;;;;;14.00;9.05;;;;;;;18.78;43.92;99460.63;5074533;28;20142;-69
2023/03/25 07:47:36;;;;;;;14.88;9.95;;;;;;;18.87;43.67;99456.59;5075949;28;20044;-65
2023/03/25 07:50:02;;;;;;;11.25;9.15;;;;;;;18.93;44.09;99457.56;5072632;28;20072;-69
2023/03/25 07:52:28;;;;;;;11.18;8.05;;;;;;;18.85;43.47;99450.63;5074700;28;20062;-68
2023/03/25 07:54:53;;;;;;;17.90;7.78;;;;;;;18.80;43.38;99453.16;5077642;28;20032;-65
2023/03/25 07:57:19;;;;;;;13.93;8.50;;;;;;;18.73;44.08;99447.03;5079323;28;20326;-68
2023/03/25 07:59:44;;;;;;;11.77;9.10;;;;;;;18.43;44.92;99445.00;5075075;28;20044;-68
2023/03/25 08:02:14;;;;;;;24.10;9.00;;;;;;;18.78;44.45;99448.03;5078919;28;20195;-69
2023/03/25 08:04:39;;;;;;;14.30;8.70;;;;;;;18.79;44.00;99446.16;5080486;28;20097;-65
2023/03/25 08:07:05;;;;;;;10.90;8.50;;;;;;;18.81;43.66;99446.75;5077588;28;20095;-64
2023/03/25 08:09:31;;;;;;;10.65;7.88;;;;;;;18.93;45.42;99439.59;5080338;28;20226;-66
2023/03/25 08:11:56;;;;;;;11.23;8.23;;;;;;;18.89;43.94;99434.91;5081809;28;20044;-69
2023/03/25 08:14:21;;;;;;;10.70;8.77;;;;;;;18.92;44.74;99429.09;5079119;28;20040;-70
2023/03/25 08:16:47;;;;;;;12.02;8.80;;;;;;;18.83;43.63;99431.25;5080073;28;20231;-66
2023/03/25 08:19:12;;;;;;;14.13;8.32;;;;;;;18.79;42.88;99430.06;5078463;28;20036;-66
2023/03/25 08:21:38;;;;;;;13.45;8.02;;;;;;;18.76;44.54;99425.97;5080527;28;20295;-66
2023/03/25 08:24:04;;;;;;;10.30;7.70;;;;;;;18.87;44.17;99418.22;5078615;28;20228;-69
2023/03/25 08:26:33;;;;;;;9.10;7.22;;;;;;;19.06;43.31;99420.66;5078454;28;20044;-69
2023/03/25 08:29:01;;;;;;;11.40;7.72;;;;;;;19.21;43.36;99427.50;5080133;28;20348;-65
2023/03/25 08:31:33;;;;;;;13.05;7.80;;;;;;;19.10;45.18;99427.22;5079269;28;20055;-65
2023/03/25 08:34:03;;;;;;;10.35;8.07;;;;;;;19.05;44.87;99426.25;5075334;28;20322;-65
2023/03/25 08:36:28;;;;;;;10.95;6.85;;;;;;;19.22;44.07;99429.97;5078297;28;20033;-65
2023/03/25 08:38:54;;;;;;;9.90;6.75;;;;;;;19.23;44.63;99428.94;5079531;28;20036;-65
2023/03/25 08:41:20;;;;;;;10.20;6.57;;;;;;;19.36;43.27;99422.56;5078328;28;20036;-66
2023/03/25 08:43:46;;;;;;;10.57;6.90;;;;;;;19.37;42.49;99424.22;5078049;28;20330;-69
2023/03/25 08:46:11;;;;;;;9.70;6.93;;;;;;;19.46;42.12;99417.47;5078658;28;20229;-66
2023/03/25 08:48:37;;;;;;;8.35;6.82;;;;;;;19.53;42.34;99412.88;5077925;28;20044;-65
2023/03/25 08:51:03;;;;;;;9.90;6.95;;;;;;;19.48;43.07;99411.88;5079455;28;20109;-65
2023/03/25 08:53:29;;;;;;;11.23;7.50;;;;;;;19.48;42.79;99401.94;5079529;28;20048;-65
2023/03/25 08:55:56;;;;;;;10.38;7.20;;;;;;;19.20;42.11;99405.22;5076984;28;20082;-65
2023/03/25 08:58:22;;;;;;;10.57;7.45;;;;;;;19.28;42.36;99401.41;5080676;28;20313;-70
2023/03/25 09:00:53;;;;;;;9.30;7.07;;;;;;;19.09;43.99;99393.38;5078753;28;20205;-69
2023/03/25 09:03:19;;;;;;;11.25;7.10;;;;;;;19.02;43.77;99386.47;5078914;28;20206;-69
2023/03/25 09:05:45;;;;;;;9.38;7.05;;;;;;;18.81;44.53;99379.69;5074494;28;20044;-69
2023/03/25 09:08:10;;;;;;;11.98;7.85;;;;;;;18.45;46.72;99377.75;5079104;28;20262;-64
2023/03/25 09:10:36;;;;;;;10.35;7.40;;;;;;;18.56;45.48;99368.16;5075796;28;20067;-69
2023/03/25 09:13:01;;;;;;;10.35;7.88;;;;;;;18.35;46.35;99369.41;5077638;28;20533;-65
2023/03/25 09:15:27;;;;;;;9.35;7.47;;;;;;;18.25;46.21;99358.38;5077640;28;20354;-65
2023/03/25 09:17:52;;;;;;;9.77;7.57;;;;;;;18.41;45.73;99347.06;5077915;28;20044;-69
2023/03/25 09:20:18;;;;;;;12.95;7.88;;;;;;;18.62;45.58;99354.72;5076060;28;20044;-70
2023/03/25 09:22:43;;;;;;;10.63;7.15;;;;;;;18.71;45.31;99352.56;5079142;28;20040;-66
2023/03/25 09:25:10;;;;;;;11.15;6.55;;;;;;;18.73;45.60;99355.84;5077494;28;20028;-69
2023/03/25 09:27:35;;;;;;;11.57;7.28;;;;;;;18.47;46.34;99346.19;5077604;28;20098;-65
2023/03/25 09:30:02;;;;;;;9.80;7.30;;;;;;;18.57;46.30;99338.44;5076436;28;20032;-69
2023/03/25 09:32:28;;;;;;;11.18;7.35;;;;;;;18.63;45.09;99339.44;5078410;28;20301;-69
2023/03/25 09:34:53;;;;;;;10.82;7.47;;;;;;;18.71;45.30;99331.91;5077485;28;20083;-69
2023/03/25 09:37:19;;;;;;;11.43;7.93;;;;;;;18.86;45.24;99336.91;5079859;28;20031;-69
2023/03/25 09:39:44;;;;;;;10.95;7.20;;;;;;;18.90;45.76;99332.75;5076956;28;20041;-71
2023/03/25 09:42:28;;;;;;;9.93;7.60;;;;;;;18.67;46.05;99328.03;5077688;28;20073;-65
2023/03/25 09:45:14;;;;;;;9.98;7.38;;;;;;;18.68;47.41;99326.19;5075134;28;20055;-69
2023/03/25 09:48:09;;;;;;;8.43;7.13;;;;;;;18.74;46.75;99318.09;5074594;28;20166;-65
2023/03/25 09:50:35;;;;;;;10.38;7.28;;;;;;;18.84;47.21;99322.09;5070432;28;20052;-65
2023/03/25 09:53:11;;;;;;;8.60;6.65;;;;;;;18.68;46.97;99318.94;5078271;28;20033;-65
2023/03/25 09:55:43;;;;;;;8.82;6.43;;;;;;;18.36;48.73;99320.94;5071774;28;20040;-65
2023/03/25 09:58:35;;;;;;;8.57;7.30;;;;;;;18.26;47.66;99306.41;5077444;28;20283;-69
2023/03/25 10:01:20;;;;;;;10.27;7.40;;;;;;;18.39;47.63;99307.09;5076057;28;20103;-69
2023/03/25 10:03:55;;;;;;;10.75;7.00;;;;;;;18.60;47.65;99292.41;5074615;28;20051;-66
2023/03/25 10:06:25;;;;;;;13.27;7.82;;;;;;;18.75;48.35;99290.22;5077269;28;20056;-66
2023/03/25 10:09:06;;;;;;;10.15;7.60;;;;;;;18.77;47.48;99293.50;5075315;28;20037;-69
2023/03/25 10:11:42;;;;;;;9.40;7.57;;;;;;;18.81;46.02;99283.94;5078458;28;20238;-64
2023/03/25 10:14:10;;;;;;;10.85;6.78;;;;;;;18.92;46.32;99279.69;5077934;28;20040;-69
2023/03/25 10:16:54;;;;;;;10.38;7.63;;;;;;;18.80;46.17;99270.75;5077355;28;20058;-69
2023/03/25 10:19:41;;;;;;;9.05;6.80;;;;;;;18.77;46.16;99268.53;5075183;28;20364;-65
2023/03/25 10:22:20;;;;;;;9.20;7.22;;;;;;;18.65;47.25;99257.72;5078766;28;20222;-69
2023/03/25 10:24:56;;;;;;;12.45;7.45;;;;;;;18.83;47.77;99256.91;5074930;28;20051;-65
2023/03/25 10:27:35;;;;;;;9.77;6.22;;;;;;;19.00;46.56;99247.16;5072377;28;20040;-66
2023/03/25 10:30:10;;;;;;;10.48;7.25;;;;;;;19.05;46.07;99233.88;5073762;28;20348;-70
2023/03/25 10:32:43;;;;;;;12.27;8.32;;;;;;;19.06;48.02;99230.16;5076312;28;20097;-65
2023/03/25 10:35:24;;;;;;;14.27;8.50;;;;;;;19.11;46.72;99227.59;5076289;28;20040;-70
2023/03/25 10:37:53;;;;;;;13.25;9.57;;;;;;;19.12;45.87;99217.69;5074449;28;20028;-69
2023/03/25 10:40:26;;;;;;;11.15;8.70;;;;;;;19.23;47.07;99205.31;5075637;28;20041;-70
2023/03/25 10:43:03;;;;;;;15.65;9.55;;;;;;;19.21;48.73;99207.44;5077270;28;20314;-69
2023/03/25 10:45:29;;;;;;;10.30;8.63;;;;;;;19.30;47.92;99204.16;5076332;28;20041;-65
2023/03/25 10:48:11;;;;;;;12.77;8.65;;;;;;;19.35;47.12;99206.16;5077142;28;20275;-69
2023/03/25 10:50:39;;;;;;;10.93;8.40;;;;;;;19.43;47.08;99203.13;5075003;28;20451;-69
2023/03/25 10:53:04;;;;;;;13.02;8.90;;;;;;;19.52;46.29;99195.56;5075848;28;20238;-69
2023/03/25 10:55:34;;;;;;;11.23;8.80;;;;;;;19.53;46.83;99187.28;5078448;28;20107;-65
2023/03/25 10:58:00;;;;;;;13.52;9.63;;;;;;;19.46;45.92;99190.06;5077090;28;20222;-69
2023/03/25 11:00:29;;;;;;;11.95;9.40;;;;;;;19.42;47.00;99188.88;5073667;28;20123;-70
2023/03/25 11:02:55;;;;;;;13.38;9.23;;;;;;;19.33;47.04;99189.47;5076836;28;20756;-65
2023/03/25 11:05:26;;;;;;;13.43;9.85;;;;;;;19.42;46.81;99180.03;5076603;28;20078;-69
2023/03/25 11:07:57;;;;;;;13.75;9.60;;;;;;;19.51;46.83;99175.13;5076505;28;20055;-69
2023/03/25 11:10:31;;;;;;;13.70;9.75;;;;;;;19.58;46.25;99168.59;5074268;28;20158;-70
2023/03/25 11:13:02;;;;;;;10.75;8.32;;;;;;;19.54;46.33;99164.75;5076012;28;20043;-69
2023/03/25 11:15:34;;;;;;;11.52;8.70;;;;;;;19.69;46.98;99154.34;5077788;28;20052;-67
2023/03/25 11:18:07;;;;;;;12.02;7.97;;;;;;;19.72;45.94;99150.38;5075911;28;20357;-70
2023/03/25 11:20:44;;;;;;;8.98;7.68;;;;;;;19.85;45.98;99150.16;5072200;28;20048;-69
2023/03/25 11:23:34;;;;;;;9.95;8.13;;;;;;;19.79;46.37;99151.09;5075021;28;20059;-70
2023/03/25 11:26:29;;;;;;;11.18;8.85;;;;;;;19.71;45.25;99138.00;5069459;28;20053;-70
2023/03/25 11:29:07;;;;;;;12.25;8.48;;;;;;;19.84;45.53;99128.91;5072428;28;20082;-66
2023/03/25 11:31:36;;;;;;;9.13;7.10;;;;;;;19.85;44.87;99123.28;5076910;28;20037;-69
2023/03/25 11:34:04;;;;;;;9.00;7.40;;;;;;;19.94;44.14;99119.19;5076928;28;20393;-65
2023/03/25 11:36:32;;;;;;;9.25;7.07;;;;;;;20.01;44.91;99122.53;5076644;28;20039;-69